Time;durP1;ratioP1;P1;durP2;ratioP2;P2;SDS_P1;SDS_P2;PMS_P1;PMS_P2;Temp;Humidity;BMP_temperature;BMP_pressure;BME280_temperature;BME280_humidity;BME280_pressure;Samples;Min_cycle;Max_cycle;Signal;HPM_P1;HPM_P2
2021/08/24 00:00:26;;;;;;;10.10;8.80;;;16.00;99.90;;;;;;5012384;28;20178;-61
2021/08/24 00:02:52;;;;;;;9.80;8.80;;;16.00;99.90;;;;;;5012607;28;20297;-62
2021/08/24 00:05:30;;;;;;;12.67;11.50;;;16.00;99.90;;;;;;5012648;28;20445;-61
2021/08/24 00:07:56;;;;;;;9.57;8.77;;;16.10;99.90;;;;;;5012583;28;20418;-62
2021/08/24 00:10:24;;;;;;;9.37;8.57;;;16.20;99.90;;;;;;5012428;28;20465;-61
2021/08/24 00:12:50;;;;;;;8.63;7.83;;;16.30;99.90;;;;;;5012481;28;20889;-61
2021/08/24 00:15:16;;;;;;;7.87;7.27;;;16.40;99.90;;;;;;5012478;28;20468;-63
2021/08/24 00:17:42;;;;;;;8.47;7.67;;;16.30;99.90;;;;;;5012511;28;20259;-62
2021/08/24 00:20:09;;;;;;;7.60;6.90;;;16.20;99.90;;;;;;5012153;28;20478;-62
2021/08/24 00:22:39;;;;;;;7.67;6.87;;;16.30;99.90;;;;;;5012323;28;20195;-61
2021/08/24 00:25:07;;;;;;;7.00;6.50;;;16.30;99.90;;;;;;5011200;28;20431;-62
2021/08/24 00:27:33;;;;;;;9.97;9.07;;;16.40;99.90;;;;;;5012385;28;20938;-60
2021/08/24 00:29:59;;;;;;;10.63;7.97;;;16.30;99.90;;;;;;5012075;28;20422;-60
2021/08/24 00:32:24;;;;;;;9.33;8.43;;;16.20;99.90;;;;;;5012222;28;20281;-60
2021/08/24 00:34:50;;;;;;;11.00;8.13;;;16.10;99.90;;;;;;5012258;28;20523;-60
2021/08/24 00:37:15;;;;;;;8.60;7.80;;;16.20;99.90;;;;;;5012127;28;20213;-62
2021/08/24 00:39:41;;;;;;;8.40;7.70;;;16.20;99.90;;;;;;5012037;28;20167;-61
2021/08/24 00:42:13;;;;;;;9.80;8.90;;;16.20;99.90;;;;;;5012447;28;20645;-61
2021/08/24 00:44:39;;;;;;;8.90;8.10;;;16.30;99.90;;;;;;5012178;28;20209;-61
2021/08/24 00:47:06;;;;;;;10.00;9.00;;;16.30;99.90;;;;;;5012176;28;20849;-62
2021/08/24 00:49:31;;;;;;;9.30;8.50;;;16.20;99.90;;;;;;5011903;28;20257;-62
2021/08/24 00:52:07;;;;;;;10.17;9.27;;;16.20;99.90;;;;;;5011973;28;20541;-63
2021/08/24 00:54:33;;;;;;;9.33;8.43;;;16.10;99.90;;;;;;5012166;28;20175;-62
2021/08/24 00:57:02;;;;;;;8.63;7.83;;;16.10;99.90;;;;;;5012413;28;20948;-62
2021/08/24 00:59:28;;;;;;;10.30;9.30;;;16.00;99.90;;;;;;5011636;28;20170;-62
2021/08/24 01:01:54;;;;;;;9.63;8.83;;;16.00;99.90;;;;;;5012085;28;20509;-62
2021/08/24 01:04:21;;;;;;;12.20;9.60;;;16.00;99.90;;;;;;5011837;28;20469;-61
2021/08/24 01:07:02;;;;;;;8.10;7.40;;;16.00;99.90;;;;;;5012055;28;20182;-61
2021/08/24 01:09:49;;;;;;;10.13;9.13;;;16.00;99.90;;;;;;5011735;28;20417;-62
2021/08/24 01:12:27;;;;;;;9.97;9.03;;;16.00;99.90;;;;;;5011743;28;20540;-61
2021/08/24 01:15:17;;;;;;;11.37;9.70;;;16.00;99.90;;;;;;5011779;28;20422;-61
2021/08/24 01:17:51;;;;;;;9.73;8.77;;;16.00;99.90;;;;;;5011927;28;20668;-60
2021/08/24 01:20:24;;;;;;;10.10;9.23;;;15.90;99.90;;;;;;5011914;28;20931;-61
2021/08/24 01:23:35;;;;;;;9.67;8.23;;;15.90;99.90;;;;;;5012226;28;20470;-62
2021/08/24 01:26:28;;;;;;;9.73;8.90;;;15.80;99.90;;;;;;5011906;28;20422;-61
2021/08/24 01:29:40;;;;;;;7.07;6.37;;;15.70;99.90;;;;;;5011430;28;20448;-61
2021/08/24 01:32:06;;;;;;;8.00;7.40;;;15.70;99.90;;;;;;5000891;28;20453;-61
2021/08/24 01:34:43;;;;;;;8.67;7.87;;;15.60;99.90;;;;;;5011869;28;20413;-62
2021/08/24 01:37:17;;;;;;;7.57;6.97;;;15.70;99.90;;;;;;5011731;28;20168;-62
2021/08/24 01:39:50;;;;;;;7.87;6.30;;;15.80;99.90;;;;;;5010161;28;20430;-62
2021/08/24 01:42:27;;;;;;;7.03;6.43;;;15.80;99.90;;;;;;5011682;28;20429;-62
2021/08/24 01:44:52;;;;;;;7.23;6.53;;;15.80;99.90;;;;;;5011578;28;20413;-60
2021/08/24 01:47:26;;;;;;;8.07;7.40;;;15.70;99.90;;;;;;5011579;28;20449;-62
2021/08/24 01:50:27;;;;;;;6.40;5.70;;;15.70;99.90;;;;;;5012190;28;20166;-63
2021/08/24 01:53:01;;;;;;;6.00;5.40;;;15.70;99.90;;;;;;5004304;28;20507;-62
2021/08/24 01:55:31;;;;;;;11.30;6.07;;;15.60;99.90;;;;;;5015228;28;20417;-62
2021/08/24 01:58:27;;;;;;;7.27;6.67;;;15.60;99.90;;;;;;5015017;28;20416;-62
2021/08/24 02:00:56;;;;;;;6.70;6.17;;;15.70;99.90;;;;;;5004207;28;20951;-62
2021/08/24 02:03:31;;;;;;;5.73;5.23;;;15.60;99.90;;;;;;5014750;28;20970;-62
2021/08/24 02:06:05;;;;;;;6.53;5.90;;;15.50;99.90;;;;;;5014897;28;20417;-62
2021/08/24 02:08:35;;;;;;;7.43;6.73;;;15.50;99.90;;;;;;5014626;28;20419;-61
2021/08/24 02:11:03;;;;;;;8.13;6.20;;;15.50;99.90;;;;;;5014714;28;20848;-60
2021/08/24 02:13:39;;;;;;;7.03;6.33;;;15.50;99.90;;;;;;5014559;28;20465;-58
2021/08/24 02:16:10;;;;;;;5.83;5.30;;;15.50;99.90;;;;;;5014584;28;20429;-62
2021/08/24 02:18:40;;;;;;;9.93;5.80;;;15.40;99.90;;;;;;5014409;28;20857;-61
2021/08/24 02:21:18;;;;;;;6.17;5.67;;;15.30;99.90;;;;;;5014724;28;20422;-62
2021/08/24 02:23:47;;;;;;;6.13;5.63;;;15.30;99.90;;;;;;5014573;28;20442;-61
2021/08/24 02:26:16;;;;;;;7.43;6.53;;;15.30;99.90;;;;;;5014518;28;20422;-61
2021/08/24 02:28:48;;;;;;;5.40;4.90;;;15.30;99.90;;;;;;5014134;28;20410;-62
2021/08/24 02:31:23;;;;;;;6.70;5.37;;;15.20;99.90;;;;;;5014427;28;20478;-62
2021/08/24 02:34:05;;;;;;;5.80;5.30;;;15.00;99.90;;;;;;5014241;28;21170;-62
2021/08/24 02:36:33;;;;;;;6.67;6.17;;;15.10;99.90;;;;;;5014365;28;20460;-61
2021/08/24 02:39:11;;;;;;;8.70;6.00;;;15.20;99.90;;;;;;5014306;28;20453;-61
2021/08/24 02:41:47;;;;;;;6.10;5.50;;;15.20;99.90;;;;;;5014344;28;20465;-62
2021/08/24 02:44:21;;;;;;;8.77;5.53;;;15.00;99.90;;;;;;5014091;28;20812;-62
2021/08/24 02:46:51;;;;;;;7.83;4.60;;;14.90;99.90;;;;;;5014052;28;20418;-62
2021/08/24 02:49:21;;;;;;;5.83;5.07;;;14.80;99.90;;;;;;5013832;28;20851;-60
2021/08/24 02:51:49;;;;;;;6.23;5.63;;;14.60;99.90;;;;;;5014057;28;20923;-61
2021/08/24 02:54:23;;;;;;;5.63;5.03;;;14.60;99.90;;;;;;5013966;28;20434;-62
2021/08/24 02:56:49;;;;;;;5.83;5.30;;;14.60;99.90;;;;;;5013866;28;20425;-62
2021/08/24 02:59:15;;;;;;;5.43;4.93;;;14.60;99.90;;;;;;5013582;28;20472;-60
2021/08/24 03:01:40;;;;;;;7.70;6.00;;;14.60;99.90;;;;;;5012837;28;20175;-61
2021/08/24 03:04:08;;;;;;;6.47;5.70;;;14.60;99.90;;;;;;5013685;28;20684;-63
2021/08/24 03:06:38;;;;;;;8.23;5.47;;;14.30;99.90;;;;;;5013588;28;20691;-60
2021/08/24 03:09:04;;;;;;;11.87;5.60;;;14.20;99.90;;;;;;5013446;28;20433;-62
2021/08/24 03:11:35;;;;;;;5.53;5.03;;;14.20;99.90;;;;;;5013477;28;21005;-61
2021/08/24 03:14:08;;;;;;;5.87;5.33;;;14.20;99.90;;;;;;5013660;28;20441;-59
2021/08/24 03:16:40;;;;;;;7.37;5.30;;;14.20;99.90;;;;;;5013709;28;20794;-62
2021/08/24 03:19:11;;;;;;;6.37;5.73;;;14.00;99.90;;;;;;5013360;28;20425;-62
2021/08/24 03:21:38;;;;;;;5.73;5.23;;;13.90;99.90;;;;;;5013467;28;20437;-62
2021/08/24 03:24:13;;;;;;;9.03;5.87;;;13.90;99.90;;;;;;5013314;28;20501;-62
2021/08/24 03:26:41;;;;;;;6.27;5.17;;;13.90;99.90;;;;;;5013493;28;20440;-61
2021/08/24 03:29:08;;;;;;;6.80;4.90;;;13.90;99.90;;;;;;5013128;28;20915;-61
2021/08/24 03:31:36;;;;;;;5.40;4.87;;;13.80;99.90;;;;;;5013179;28;20476;-60
2021/08/24 03:34:01;;;;;;;9.93;5.90;;;13.80;99.90;;;;;;5013195;28;20441;-61
2021/08/24 03:36:27;;;;;;;5.40;5.00;;;13.70;99.90;;;;;;5013537;28;20417;-63
2021/08/24 03:38:52;;;;;;;7.20;6.60;;;13.70;99.90;;;;;;5012900;28;20237;-59
2021/08/24 03:41:18;;;;;;;5.60;5.20;;;13.80;99.90;;;;;;5013090;28;20162;-62
2021/08/24 03:43:43;;;;;;;9.10;6.20;;;13.70;99.90;;;;;;5013024;28;20684;-62
2021/08/24 03:46:09;;;;;;;10.17;6.50;;;13.60;99.90;;;;;;5013043;28;20673;-59
2021/08/24 03:48:34;;;;;;;9.00;6.07;;;13.50;99.90;;;;;;5012724;28;20179;-63
2021/08/24 03:51:00;;;;;;;10.00;6.80;;;13.50;99.90;;;;;;5012843;28;20656;-60
2021/08/24 03:53:26;;;;;;;6.43;5.20;;;13.40;99.90;;;;;;5012824;28;20202;-59
2021/08/24 03:55:51;;;;;;;7.00;6.50;;;13.50;99.90;;;;;;5012846;28;20583;-62
2021/08/24 03:58:17;;;;;;;5.93;5.37;;;13.50;99.90;;;;;;5012620;28;20589;-62
2021/08/24 04:00:44;;;;;;;6.37;5.73;;;13.50;99.90;;;;;;5012688;28;20202;-61
2021/08/24 04:03:10;;;;;;;8.40;6.10;;;13.60;99.90;;;;;;5013452;28;20222;-62
2021/08/24 04:05:35;;;;;;;5.97;5.47;;;13.50;99.90;;;;;;5012551;28;20426;-62
2021/08/24 04:08:01;;;;;;;6.67;5.90;;;13.40;99.90;;;;;;5012703;28;20178;-61
2021/08/24 04:10:26;;;;;;;6.97;6.27;;;13.30;99.90;;;;;;5012532;28;20557;-62
2021/08/24 04:12:52;;;;;;;8.20;6.97;;;13.30;99.90;;;;;;5012162;28;20202;-63
2021/08/24 04:15:17;;;;;;;8.17;7.20;;;13.40;99.90;;;;;;5012577;28;20198;-62
2021/08/24 04:17:43;;;;;;;6.90;6.33;;;13.40;99.90;;;;;;5012548;28;20181;-62
2021/08/24 04:20:11;;;;;;;5.97;5.47;;;13.30;99.90;;;;;;5012121;28;20281;-62
2021/08/24 04:22:40;;;;;;;7.20;6.37;;;13.20;99.90;;;;;;5012493;28;20246;-61
2021/08/24 04:25:06;;;;;;;6.90;6.30;;;13.20;99.90;;;;;;5012453;28;20435;-60
2021/08/24 04:27:31;;;;;;;7.13;6.50;;;13.20;99.90;;;;;;5012306;28;20425;-61
2021/08/24 04:29:57;;;;;;;6.33;5.73;;;13.30;99.90;;;;;;5012071;28;20422;-62
2021/08/24 04:32:26;;;;;;;8.07;7.47;;;13.20;99.90;;;;;;5012632;28;20218;-60
2021/08/24 04:34:53;;;;;;;6.70;6.07;;;13.10;99.90;;;;;;5012338;28;20258;-61
2021/08/24 04:37:19;;;;;;;12.07;6.47;;;13.10;99.90;;;;;;5011192;28;20421;-62
2021/08/24 04:39:44;;;;;;;6.10;5.50;;;13.10;99.90;;;;;;5011942;28;20417;-62
2021/08/24 04:42:10;;;;;;;6.97;6.33;;;13.10;99.90;;;;;;5012177;28;20981;-61
2021/08/24 04:44:35;;;;;;;11.17;6.20;;;13.20;99.90;;;;;;5012230;28;20175;-61
2021/08/24 04:47:01;;;;;;;6.77;6.17;;;13.30;99.90;;;;;;5012031;28;20171;-62
2021/08/24 04:49:26;;;;;;;9.47;7.10;;;13.10;99.90;;;;;;5011906;28;20246;-62
2021/08/24 04:51:52;;;;;;;8.83;5.43;;;13.10;99.90;;;;;;5012061;28;20541;-61
2021/08/24 04:54:18;;;;;;;6.50;6.00;;;13.10;99.90;;;;;;5012123;28;20258;-60
2021/08/24 04:56:44;;;;;;;6.93;6.33;;;13.10;99.90;;;;;;5012135;28;20209;-62
2021/08/24 04:59:09;;;;;;;7.53;6.93;;;13.10;99.90;;;;;;5011830;28;20171;-62
2021/08/24 05:01:35;;;;;;;6.40;5.90;;;13.20;99.90;;;;;;5012003;28;20772;-62
2021/08/24 05:04:01;;;;;;;7.37;6.67;;;13.30;99.90;;;;;;5011829;28;20246;-61
2021/08/24 05:06:27;;;;;;;9.50;7.23;;;13.40;99.90;;;;;;5011952;28;20425;-62
2021/08/24 05:08:52;;;;;;;10.53;8.00;;;13.30;99.90;;;;;;5011875;28;20265;-62
2021/08/24 05:11:18;;;;;;;9.63;7.70;;;13.30;99.90;;;;;;5012078;28;20410;-59
2021/08/24 05:13:44;;;;;;;11.63;7.80;;;13.40;99.90;;;;;;5011964;28;20570;-62
2021/08/24 05:16:10;;;;;;;9.07;7.43;;;13.30;99.90;;;;;;5011886;28;20190;-62
2021/08/24 05:18:36;;;;;;;8.97;7.70;;;13.40;99.90;;;;;;5011515;28;20648;-62
2021/08/24 05:21:08;;;;;;;8.63;7.83;;;13.40;99.90;;;;;;5012068;28;20492;-62
2021/08/24 05:23:34;;;;;;;11.20;6.63;;;13.60;99.90;;;;;;5011724;28;20592;-63
2021/08/24 05:26:05;;;;;;;7.40;6.80;;;13.60;99.90;;;;;;5014589;28;20767;-62
2021/08/24 05:28:30;;;;;;;8.20;7.40;;;13.70;99.90;;;;;;5015337;28;20633;-62
2021/08/24 05:30:55;;;;;;;10.77;6.97;;;13.70;99.90;;;;;;5015407;28;20428;-61
2021/08/24 05:33:21;;;;;;;9.03;8.23;;;13.70;99.90;;;;;;5015356;28;20214;-60
2021/08/24 05:35:46;;;;;;;8.93;7.93;;;13.80;99.90;;;;;;5015399;28;20191;-61
2021/08/24 05:38:12;;;;;;;7.90;6.73;;;13.90;99.90;;;;;;5015274;28;20187;-62
2021/08/24 05:40:37;;;;;;;8.83;7.50;;;14.00;99.90;;;;;;5015189;28;20181;-60
2021/08/24 05:43:03;;;;;;;6.80;6.30;;;14.10;99.90;;;;;;5015272;28;20199;-61
2021/08/24 05:45:28;;;;;;;10.23;7.40;;;14.10;99.90;;;;;;5015211;28;20171;-62
2021/08/24 05:47:54;;;;;;;8.73;7.03;;;14.10;99.90;;;;;;5015247;28;20186;-62
2021/08/24 05:50:20;;;;;;;11.17;8.23;;;14.20;99.90;;;;;;5014823;28;20175;-61
2021/08/24 05:52:45;;;;;;;9.27;8.37;;;14.20;99.90;;;;;;5014505;28;20217;-60
2021/08/24 05:55:11;;;;;;;11.90;8.83;;;14.20;99.90;;;;;;5015109;28;20182;-61
2021/08/24 05:57:36;;;;;;;10.93;8.30;;;14.30;99.90;;;;;;5014962;28;20178;-60
2021/08/24 06:00:04;;;;;;;10.50;9.23;;;14.30;99.90;;;;;;5014824;28;20637;-62
2021/08/24 06:02:30;;;;;;;9.20;8.30;;;14.30;99.90;;;;;;5014970;28;20199;-60
2021/08/24 06:04:55;;;;;;;9.67;8.70;;;14.50;99.90;;;;;;5015361;28;20421;-62
2021/08/24 06:07:21;;;;;;;7.83;7.13;;;14.70;99.90;;;;;;5014781;28;20277;-62
2021/08/24 06:09:47;;;;;;;8.70;7.90;;;14.90;99.90;;;;;;5014580;28;20175;-61
2021/08/24 06:12:12;;;;;;;8.23;7.57;;;15.00;99.90;;;;;;5014538;28;20198;-62
2021/08/24 06:14:37;;;;;;;8.60;7.90;;;15.00;99.90;;;;;;5014741;28;20175;-62
2021/08/24 06:17:03;;;;;;;7.93;7.33;;;15.10;99.90;;;;;;5014690;28;20679;-62
2021/08/24 06:19:30;;;;;;;8.40;7.60;;;15.20;99.90;;;;;;5014324;28;20179;-62
2021/08/24 06:21:57;;;;;;;8.83;8.10;;;15.20;99.90;;;;;;5014572;28;20167;-62
2021/08/24 06:24:23;;;;;;;8.03;7.40;;;15.30;99.90;;;;;;5014548;28;20537;-62
2021/08/24 06:26:48;;;;;;;8.50;7.70;;;15.50;99.90;;;;;;5014437;28;20524;-62
2021/08/24 06:29:15;;;;;;;9.63;8.73;;;15.70;99.90;;;;;;5014148;28;20469;-62
2021/08/24 06:31:52;;;;;;;8.90;8.00;;;15.80;99.90;;;;;;5014366;28;20229;-62
2021/08/24 06:34:19;;;;;;;11.30;8.70;;;15.80;99.90;;;;;;5014378;28;20437;-62
2021/08/24 06:36:45;;;;;;;8.93;8.03;;;15.80;99.90;;;;;;5014051;28;20418;-62
2021/08/24 06:39:11;;;;;;;7.73;7.13;;;15.80;99.90;;;;;;5013970;28;20793;-62
2021/08/24 06:41:38;;;;;;;14.33;8.20;;;15.60;99.90;;;;;;5014301;28;20565;-63
2021/08/24 06:44:08;;;;;;;8.33;7.60;;;15.50;99.90;;;;;;5014099;28;20464;-62
2021/08/24 06:46:34;;;;;;;9.10;7.70;;;15.70;99.90;;;;;;5014190;28;20421;-62
2021/08/24 06:49:00;;;;;;;8.63;7.83;;;15.90;99.90;;;;;;5012538;28;20426;-62
2021/08/24 06:51:26;;;;;;;8.20;7.50;;;16.00;99.90;;;;;;5013330;28;20410;-62
2021/08/24 06:53:52;;;;;;;7.53;6.93;;;16.10;99.90;;;;;;5013911;28;20242;-62
2021/08/24 06:56:17;;;;;;;8.63;7.90;;;16.20;99.90;;;;;;5013962;28;20481;-62
2021/08/24 06:58:44;;;;;;;9.20;7.90;;;16.30;99.90;;;;;;5013721;28;20171;-61
2021/08/24 07:01:29;;;;;;;8.77;8.00;;;16.40;99.90;;;;;;5013906;28;20675;-60
2021/08/24 07:03:55;;;;;;;8.93;7.43;;;16.30;99.90;;;;;;5013550;28;20453;-63
2021/08/24 07:06:21;;;;;;;9.07;8.37;;;16.30;99.90;;;;;;5013719;28;20432;-63
2021/08/24 07:08:46;;;;;;;8.63;7.83;;;16.30;99.90;;;;;;5013481;28;20175;-63
2021/08/24 07:11:12;;;;;;;8.37;7.60;;;16.30;99.90;;;;;;5013697;28;20178;-62
2021/08/24 07:13:39;;;;;;;11.00;10.03;;;16.30;99.90;;;;;;5013497;28;20230;-62
2021/08/24 07:16:07;;;;;;;9.07;8.27;;;16.40;99.90;;;;;;5013615;28;20433;-61
2021/08/24 07:18:33;;;;;;;8.70;7.90;;;16.50;99.90;;;;;;5013184;28;20417;-61
2021/08/24 07:20:59;;;;;;;8.60;7.80;;;16.40;99.90;;;;;;5013516;28;20471;-61
2021/08/24 07:23:24;;;;;;;7.57;6.93;;;16.50;99.90;;;;;;5012156;28;20445;-62
2021/08/24 07:25:50;;;;;;;10.23;7.10;;;16.30;99.90;;;;;;5012162;28;20182;-62
2021/08/24 07:28:16;;;;;;;7.00;6.23;;;16.10;99.90;;;;;;5013239;28;20175;-62
2021/08/24 07:30:44;;;;;;;8.30;7.47;;;16.30;99.90;;;;;;5013229;28;20610;-61
2021/08/24 07:33:10;;;;;;;7.70;7.00;;;16.20;99.90;;;;;;5013162;28;20211;-62
2021/08/24 07:35:36;;;;;;;7.40;6.70;;;16.10;99.90;;;;;;5013164;28;20425;-62
2021/08/24 07:38:02;;;;;;;6.87;6.23;;;16.20;99.90;;;;;;5013255;28;20421;-62
2021/08/24 07:40:30;;;;;;;7.90;6.90;;;15.90;99.90;;;;;;5013257;28;20429;-62
2021/08/24 07:42:55;;;;;;;7.07;6.47;;;15.80;99.90;;;;;;5013126;28;20442;-63
2021/08/24 07:45:21;;;;;;;7.40;6.57;;;15.90;99.90;;;;;;5013537;28;20949;-61
2021/08/24 07:47:47;;;;;;;7.57;5.17;;;15.90;99.90;;;;;;5012474;28;20716;-62
2021/08/24 07:50:13;;;;;;;6.80;6.20;;;16.00;99.90;;;;;;5012652;28;20826;-62
2021/08/24 07:52:39;;;;;;;6.07;5.47;;;16.20;99.90;;;;;;5012642;28;20564;-62
2021/08/24 07:55:06;;;;;;;6.97;6.37;;;16.20;99.90;;;;;;5012969;28;20422;-62
2021/08/24 07:57:32;;;;;;;6.67;5.13;;;16.20;99.90;;;;;;5012803;28;20258;-63
2021/08/24 07:59:58;;;;;;;6.37;5.77;;;16.30;99.90;;;;;;5012477;28;20875;-61
2021/08/24 08:02:23;;;;;;;5.97;5.47;;;16.40;99.90;;;;;;5012576;28;20536;-63
2021/08/24 08:04:49;;;;;;;5.53;5.03;;;16.70;99.90;;;;;;5012693;28;20167;-62
2021/08/24 08:07:16;;;;;;;6.30;4.90;;;16.80;99.90;;;;;;5012809;28;20191;-59
2021/08/24 08:09:42;;;;;;;4.80;4.40;;;16.70;99.90;;;;;;5012437;28;20428;-63
2021/08/24 08:12:09;;;;;;;6.00;5.20;;;16.70;99.90;;;;;;5011144;28;20548;-62
2021/08/24 08:14:35;;;;;;;5.70;5.13;;;16.80;99.90;;;;;;5013016;28;20855;-62
2021/08/24 08:17:01;;;;;;;9.40;4.70;;;16.90;99.90;;;;;;5012552;28;20508;-61
2021/08/24 08:19:26;;;;;;;7.97;4.60;;;16.80;99.90;;;;;;5012209;28;20500;-63
2021/08/24 08:21:52;;;;;;;5.53;4.90;;;16.80;99.90;;;;;;5012466;28;20710;-62
2021/08/24 08:24:18;;;;;;;5.30;4.57;;;16.90;99.90;;;;;;5012381;28;20191;-62
2021/08/24 08:26:43;;;;;;;6.07;5.47;;;16.90;99.90;;;;;;5012410;28;20206;-62
2021/08/24 08:29:11;;;;;;;4.57;4.17;;;16.90;99.90;;;;;;5012053;28;20663;-62
2021/08/24 08:31:39;;;;;;;6.13;4.97;;;16.90;99.90;;;;;;5012570;28;20563;-60
2021/08/24 08:34:05;;;;;;;5.50;5.00;;;16.80;99.90;;;;;;5012137;28;20466;-62
2021/08/24 08:36:31;;;;;;;7.27;4.70;;;16.90;99.90;;;;;;5012270;28;20422;-62
2021/08/24 08:38:56;;;;;;;6.17;5.57;;;17.00;99.90;;;;;;5011992;28;20171;-62
2021/08/24 08:41:57;;;;;;;6.07;5.47;;;17.00;99.90;;;;;;5012175;28;20269;-62
2021/08/24 08:44:41;;;;;;;5.57;5.07;;;17.40;99.90;;;;;;5003871;28;20230;-62
2021/08/24 08:47:17;;;;;;;5.03;4.53;;;17.90;99.90;;;;;;5012305;28;20425;-62
2021/08/24 08:49:55;;;;;;;4.80;4.30;;;18.40;99.90;;;;;;5011808;28;20837;-62
2021/08/24 08:52:48;;;;;;;7.10;4.60;;;18.70;99.90;;;;;;5011610;28;20457;-60
2021/08/24 08:55:50;;;;;;;5.47;4.87;;;19.00;99.90;;;;;;5012192;28;20509;-62
2021/08/24 08:58:35;;;;;;;5.50;4.63;;;18.80;99.90;;;;;;5011968;28;20956;-62
2021/08/24 09:01:18;;;;;;;5.17;4.67;;;18.70;99.90;;;;;;5015144;28;20556;-62
2021/08/24 09:03:56;;;;;;;5.57;4.97;;;18.50;99.90;;;;;;5015941;28;20457;-61
2021/08/24 09:06:27;;;;;;;5.00;3.93;;;18.50;99.90;;;;;;5016139;28;20425;-62
2021/08/24 09:08:53;;;;;;;5.53;4.07;;;18.30;99.90;;;;;;5015706;28;20421;-63
2021/08/24 09:11:25;;;;;;;5.00;4.60;;;17.90;99.90;;;;;;5015962;28;20429;-62
2021/08/24 09:13:57;;;;;;;5.93;5.47;;;17.60;99.90;;;;;;5015732;28;20537;-62
2021/08/24 09:16:34;;;;;;;6.53;5.90;;;17.60;99.90;;;;;;5015871;28;20721;-61
2021/08/24 09:19:24;;;;;;;5.43;5.00;;;17.60;99.90;;;;;;5015468;28;20938;-62
2021/08/24 09:21:50;;;;;;;8.23;5.40;;;17.40;99.90;;;;;;5015826;28;20422;-61
2021/08/24 09:24:23;;;;;;;6.17;5.60;;;17.20;99.90;;;;;;5015615;28;20492;-62
2021/08/24 09:26:57;;;;;;;6.27;5.63;;;17.00;99.90;;;;;;5015629;28;20424;-62
2021/08/24 09:29:27;;;;;;;6.70;5.90;;;16.80;99.90;;;;;;5015472;28;20417;-63
2021/08/24 09:31:53;;;;;;;12.70;5.60;;;17.00;99.90;;;;;;5015395;28;20428;-63
2021/08/24 09:34:25;;;;;;;6.20;5.60;;;16.90;99.90;;;;;;5015491;28;20988;-62
2021/08/24 09:36:51;;;;;;;7.83;5.60;;;17.10;99.90;;;;;;5015513;28;20713;-63
2021/08/24 09:39:36;;;;;;;6.17;5.57;;;17.10;99.90;;;;;;5015065;28;20422;-62
2021/08/24 09:42:08;;;;;;;5.37;4.83;;;17.10;99.90;;;;;;5015371;28;20272;-62
2021/08/24 09:44:34;;;;;;;6.67;5.67;;;17.30;99.90;;;;;;5015291;28;20456;-62
2021/08/24 09:47:15;;;;;;;8.20;5.87;;;17.50;99.90;;;;;;5015201;28;20425;-62
2021/08/24 09:49:42;;;;;;;7.07;6.33;;;17.50;99.90;;;;;;5014965;28;20786;-62
2021/08/24 09:52:25;;;;;;;7.90;7.10;;;17.60;99.90;;;;;;5015036;28;20580;-62
2021/08/24 09:55:04;;;;;;;5.43;4.93;;;17.60;99.90;;;;;;5013899;28;20515;-62
2021/08/24 09:57:36;;;;;;;5.40;5.00;;;17.60;99.90;;;;;;5015171;28;20501;-60
2021/08/24 10:00:11;;;;;;;5.27;4.87;;;17.90;99.90;;;;;;5014749;28;20432;-63
2021/08/24 10:02:43;;;;;;;5.87;5.40;;;18.20;99.90;;;;;;5015379;28;20452;-63
2021/08/24 10:05:14;;;;;;;5.80;5.10;;;18.40;99.90;;;;;;5014968;28;20426;-63
2021/08/24 10:07:45;;;;;;;6.20;5.03;;;18.50;99.90;;;;;;5014941;28;20425;-63
2021/08/24 10:10:28;;;;;;;6.10;4.80;;;18.60;99.90;;;;;;5014227;28;20433;-63
2021/08/24 10:12:56;;;;;;;4.77;4.37;;;19.50;99.90;;;;;;5014754;28;20461;-63
2021/08/24 10:15:23;;;;;;;5.07;4.67;;;20.60;99.90;;;;;;5014769;28;20421;-63
2021/08/24 10:17:58;;;;;;;5.20;4.73;;;21.60;99.90;;;;;;5014799;28;20415;-63
2021/08/24 10:20:34;;;;;;;7.90;5.67;;;21.80;99.90;;;;;;5014372;28;20953;-63
2021/08/24 10:23:04;;;;;;;4.77;4.47;;;22.20;99.90;;;;;;5014514;28;20445;-63
2021/08/24 10:25:39;;;;;;;5.20;4.70;;;22.20;99.90;;;;;;5014603;28;20476;-63
2021/08/24 10:28:13;;;;;;;5.40;4.90;;;21.50;99.90;;;;;;5014555;28;20914;-63
2021/08/24 10:30:56;;;;;;;5.37;4.97;;;20.60;99.90;;;;;;5014283;28;20769;-63
2021/08/24 10:33:47;;;;;;;5.03;4.63;;;20.10;99.90;;;;;;5014176;28;20449;-63
2021/08/24 10:36:22;;;;;;;5.53;5.00;;;20.10;99.90;;;;;;5014723;28;20409;-63
2021/08/24 10:38:59;;;;;;;5.60;4.63;;;19.80;99.90;;;;;;5014084;28;20413;-63
2021/08/24 10:41:40;;;;;;;4.80;4.50;;;19.50;99.90;;;;;;5014279;28;20414;-63
2021/08/24 10:44:24;;;;;;;4.97;4.57;;;19.60;99.90;;;;;;5014231;28;20433;-63
2021/08/24 10:47:05;;;;;;;5.33;4.83;;;19.70;99.90;;;;;;5014270;28;20560;-63
2021/08/24 10:49:32;;;;;;;5.50;5.00;;;19.50;99.90;;;;;;5013879;28;20414;-63
2021/08/24 10:52:23;;;;;;;10.07;5.10;;;19.40;99.90;;;;;;5013974;28;20414;-63
2021/08/24 10:55:01;;;;;;;5.13;4.77;;;19.30;99.90;;;;;;5014048;28;20429;-63
2021/08/24 10:57:44;;;;;;;5.50;5.10;;;19.10;99.90;;;;;;5014016;28;20413;-63
2021/08/24 11:00:22;;;;;;;5.83;5.33;;;18.90;99.90;;;;;;5013619;28;20422;-63
2021/08/24 11:03:07;;;;;;;6.70;5.77;;;18.90;99.90;;;;;;5014020;28;20529;-63
2021/08/24 11:05:55;;;;;;;6.70;5.40;;;19.00;99.90;;;;;;5013783;28;20421;-63
2021/08/24 11:08:31;;;;;;;5.63;5.13;;;18.90;99.90;;;;;;5013662;28;20477;-63
2021/08/24 11:11:21;;;;;;;5.60;5.10;;;18.60;99.90;;;;;;5013653;28;20910;-63
2021/08/24 11:14:04;;;;;;;5.90;5.40;;;18.40;99.90;;;;;;5013499;28;20465;-63
2021/08/24 11:16:40;;;;;;;6.40;5.80;;;18.10;99.90;;;;;;5013660;28;20872;-63
2021/08/24 11:19:45;;;;;;;6.27;5.77;;;18.10;99.90;;;;;;5013219;28;20414;-63
2021/08/24 11:22:31;;;;;;;5.97;5.37;;;18.10;99.90;;;;;;5012129;28;20425;-63
2021/08/24 11:25:08;;;;;;;7.43;6.73;;;18.30;99.90;;;;;;5013532;28;20849;-63
2021/08/24 11:28:02;;;;;;;5.80;5.40;;;18.60;99.90;;;;;;5013306;28;20425;-63
2021/08/24 11:30:43;;;;;;;5.13;4.73;;;18.70;99.90;;;;;;5013026;28;20445;-63
2021/08/24 11:33:40;;;;;;;5.20;4.87;;;18.80;99.90;;;;;;5013234;28;20461;-63
2021/08/24 11:36:16;;;;;;;6.53;5.33;;;19.00;99.90;;;;;;5012163;28;20520;-63
2021/08/24 11:38:44;;;;;;;4.90;4.50;;;19.10;99.90;;;;;;5013029;28;20834;-63
2021/08/24 11:41:17;;;;;;;5.67;5.27;;;19.10;99.90;;;;;;5013165;28;20504;-63
2021/08/24 11:44:11;;;;;;;4.80;4.40;;;18.90;99.90;;;;;;5013085;28;20971;-63
2021/08/24 11:47:06;;;;;;;4.60;4.30;;;18.80;99.90;;;;;;5013069;28;20407;-63
2021/08/24 11:49:41;;;;;;;5.43;4.93;;;18.80;99.90;;;;;;5012986;28;20413;-63
2021/08/24 11:52:14;;;;;;;5.20;4.70;;;19.00;99.90;;;;;;5012763;28;20413;-63
2021/08/24 11:55:03;;;;;;;5.07;4.67;;;19.10;99.90;;;;;;5012940;28;20458;-63
2021/08/24 11:57:46;;;;;;;5.20;4.80;;;19.40;99.90;;;;;;5012947;28;20405;-63
2021/08/24 12:00:13;;;;;;;5.03;4.43;;;19.50;99.90;;;;;;5012642;28;20413;-63
2021/08/24 12:02:43;;;;;;;7.00;4.80;;;19.80;99.90;;;;;;5012711;28;20449;-63
2021/08/24 12:05:24;;;;;;;4.80;4.50;;;20.10;99.90;;;;;;5012562;28;20471;-63
2021/08/24 12:08:17;;;;;;;5.30;4.90;;;20.10;99.90;;;;;;5012550;28;20429;-63
2021/08/24 12:10:51;;;;;;;4.93;4.53;;;20.80;99.90;;;;;;5012519;28;20516;-63
2021/08/24 12:13:35;;;;;;;5.10;4.70;;;22.50;99.90;;;;;;5012415;28;20453;-63
2021/08/24 12:16:18;;;;;;;4.50;4.10;;;23.70;99.90;;;;;;5012777;28;20428;-63
2021/08/24 12:18:44;;;;;;;5.13;4.63;;;24.00;99.90;;;;;;5012296;28;20988;-63
2021/08/24 12:21:45;;;;;;;5.47;4.67;;;23.80;99.90;;;;;;5012504;28;20414;-63
2021/08/24 12:24:35;;;;;;;4.27;3.97;;;23.60;99.90;;;;;;5012429;28;20448;-63
2021/08/24 12:27:00;;;;;;;5.03;4.60;;;22.70;99.90;;;;;;5012318;28;20441;-63
2021/08/24 12:29:35;;;;;;;5.27;4.90;;;22.10;99.90;;;;;;5012299;28;20431;-63
2021/08/24 12:32:11;;;;;;;4.83;4.43;;;21.70;99.90;;;;;;5012274;28;20178;-63
2021/08/24 12:34:39;;;;;;;5.00;4.60;;;21.30;99.90;;;;;;5012127;28;20422;-63
2021/08/24 12:37:05;;;;;;;4.33;4.03;;;21.20;99.90;;;;;;5012216;28;20851;-63
2021/08/24 12:39:39;;;;;;;4.93;4.53;;;21.00;99.90;;;;;;5012093;28;20805;-63
2021/08/24 12:42:22;;;;;;;5.40;4.90;;;20.90;99.90;;;;;;5012269;28;20506;-63
2021/08/24 12:45:14;;;;;;;6.03;5.50;;;20.70;99.90;;;;;;5012146;28;20825;-63
2021/08/24 12:48:14;;;;;;;5.63;5.23;;;20.50;99.90;;;;;;5012017;28;20425;-63
2021/08/24 12:50:39;;;;;;;5.37;4.97;;;20.40;99.90;;;;;;5011935;28;20496;-62
2021/08/24 12:53:29;;;;;;;5.50;5.10;;;20.30;99.90;;;;;;5011584;28;21017;-62
2021/08/24 12:55:57;;;;;;;6.80;6.20;;;20.10;99.90;;;;;;5012061;28;20711;-62
2021/08/24 12:58:27;;;;;;;5.30;4.90;;;19.80;99.90;;;;;;5011745;28;20422;-62
2021/08/24 13:01:22;;;;;;;6.97;6.37;;;19.60;99.90;;;;;;5012064;28;20918;-62
2021/08/24 13:04:12;;;;;;;7.13;5.90;;;19.60;99.90;;;;;;5011800;28;20933;-62
2021/08/24 13:06:41;;;;;;;5.40;4.90;;;19.90;99.90;;;;;;5011975;28;20410;-62
2021/08/24 13:09:18;;;;;;;5.20;4.80;;;20.30;99.90;;;;;;5011669;28;20421;-62